createdAt,value
2018-01-08T00:01:15.198Z,8.01
2018-01-08T00:03:45.111Z,7.94
2018-01-08T00:06:14.967Z,7.97
2018-01-08T00:08:44.855Z,7.91
2018-01-08T00:11:18.541Z,7.95
2018-01-08T00:13:48.483Z,7.90
2018-01-08T00:16:18.162Z,7.88
2018-01-08T00:18:48.114Z,7.85
2018-01-08T00:21:18.026Z,7.82
2018-01-08T00:23:47.933Z,7.79
2018-01-08T00:26:17.819Z,7.87
2018-01-08T00:28:48.639Z,7.81
2018-01-08T00:31:18.428Z,7.79
2018-01-08T00:33:48.671Z,7.71
2018-01-08T00:36:18.557Z,7.77
2018-01-08T00:38:48.445Z,7.81
2018-01-08T00:41:19.502Z,7.82
2018-01-08T00:43:51.201Z,7.77
2018-01-08T00:46:21.096Z,7.81
2018-01-08T00:48:51.010Z,7.73
2018-01-08T00:54:04.410Z,7.76
2018-01-08T00:56:34.292Z,7.75
2018-01-08T00:59:04.166Z,7.76
2018-01-08T01:01:34.038Z,7.82
2018-01-08T01:04:03.881Z,7.77
2018-01-08T01:06:33.800Z,7.77
2018-01-08T01:09:03.482Z,7.76
2018-01-08T01:15:05.991Z,7.70
2018-01-08T01:20:37.225Z,7.71
2018-01-08T01:23:07.102Z,7.64
2018-01-08T01:25:37.003Z,7.66
2018-01-08T01:28:06.909Z,7.66
2018-01-08T01:30:36.761Z,7.56
2018-01-08T01:33:06.629Z,7.58
2018-01-08T01:35:36.523Z,7.55
2018-01-08T01:38:06.396Z,7.50
2018-01-08T01:40:36.239Z,7.55
2018-01-08T01:43:06.185Z,7.49
2018-01-08T01:45:36.069Z,7.48
2018-01-08T01:48:05.896Z,7.46
2018-01-08T01:50:35.721Z,7.47
2018-01-08T01:53:05.962Z,7.49
2018-01-08T01:55:35.903Z,7.49
2018-01-08T01:58:05.772Z,7.53
2018-01-08T02:00:35.668Z,7.49
2018-01-08T02:03:05.344Z,7.45
2018-01-08T02:05:35.234Z,7.46
2018-01-08T02:08:05.059Z,7.43
2018-01-08T02:10:34.845Z,7.42
2018-01-08T02:13:04.685Z,7.51
2018-01-08T02:15:34.646Z,7.50
2018-01-08T02:18:04.557Z,7.50
2018-01-08T02:20:34.178Z,7.50
2018-01-08T02:23:04.036Z,7.48
2018-01-08T02:25:33.878Z,7.50
2018-01-08T02:28:03.502Z,7.44
2018-01-08T02:30:33.444Z,7.46
2018-01-08T02:33:03.289Z,7.45
2018-01-08T02:35:33.169Z,7.50
2018-01-08T02:38:03.078Z,7.48
2018-01-08T02:40:33.009Z,7.47
2018-01-08T02:43:02.847Z,7.51
2018-01-08T02:45:32.771Z,7.40
2018-01-08T02:48:03.168Z,7.43
2018-01-08T02:50:33.593Z,7.47
2018-01-08T02:53:04.049Z,7.46
2018-01-08T02:55:33.905Z,7.47
2018-01-08T02:58:03.772Z,7.46
2018-01-08T03:00:33.745Z,7.47
2018-01-08T03:03:03.582Z,7.41
2018-01-08T03:05:33.166Z,7.41
2018-01-08T03:08:03.272Z,7.45
2018-01-08T03:10:33.199Z,7.39
2018-01-08T03:13:02.897Z,7.43
2018-01-08T03:15:32.771Z,7.40
2018-01-08T03:18:02.679Z,7.42
2018-01-08T03:20:32.506Z,7.40
2018-01-08T03:23:02.356Z,7.42
2018-01-08T03:25:32.268Z,7.46
2018-01-08T03:28:02.119Z,7.34
2018-01-08T03:30:31.986Z,7.33
2018-01-08T03:33:01.814Z,7.29
2018-01-08T03:35:31.700Z,7.17
2018-01-08T03:38:01.556Z,7.24
2018-01-08T03:40:31.410Z,7.22
2018-01-08T03:43:01.294Z,7.16
2018-01-08T03:45:31.803Z,7.18
2018-01-08T03:48:01.979Z,7.22
2018-01-08T03:50:33.471Z,7.24
2018-01-08T03:53:03.327Z,7.24
2018-01-08T03:55:33.409Z,7.21
2018-01-08T03:58:03.316Z,7.20
2018-01-08T04:00:33.193Z,7.16
2018-01-08T04:03:02.817Z,7.20
2018-01-08T04:05:32.757Z,7.29
2018-01-08T04:08:02.640Z,7.23
2018-01-08T04:10:36.294Z,7.18
2018-01-08T04:13:06.197Z,7.25
2018-01-08T04:15:36.065Z,7.18
2018-01-08T04:18:05.676Z,7.16
2018-01-08T04:20:35.583Z,7.13
2018-01-08T04:23:05.777Z,7.01
2018-01-08T04:25:38.560Z,7.05
2018-01-08T04:28:08.500Z,7.04
2018-01-08T04:30:38.394Z,7.00
2018-01-08T04:33:08.335Z,6.97
2018-01-08T04:35:38.436Z,6.93
2018-01-08T04:38:08.424Z,6.98
2018-01-08T04:40:38.306Z,6.98
2018-01-08T04:43:08.214Z,6.88
2018-01-08T04:45:38.108Z,6.94
2018-01-08T04:48:07.988Z,6.96
2018-01-08T04:50:37.898Z,6.96
2018-01-08T04:53:07.812Z,7.01
2018-01-08T04:55:38.094Z,7.02
2018-01-08T04:58:07.987Z,7.01
2018-01-08T05:00:38.089Z,7.09
2018-01-08T05:03:07.848Z,7.05
2018-01-08T05:05:37.848Z,7.05
2018-01-08T05:08:07.733Z,7.03
2018-01-08T05:10:37.597Z,7.02
2018-01-08T05:16:06.134Z,7.08
2018-01-08T05:18:36.115Z,7.05
2018-01-08T05:21:06.103Z,7.02
2018-01-08T05:23:36.103Z,6.91
2018-01-08T05:26:19.090Z,7.00
2018-01-08T05:28:51.072Z,6.89
2018-01-08T05:31:21.197Z,6.80
2018-01-08T05:33:55.093Z,6.85
2018-01-08T05:36:25.075Z,6.80
2018-01-08T05:38:55.113Z,6.78
2018-01-08T05:41:26.283Z,6.68
2018-01-08T05:44:03.690Z,6.62
2018-01-08T05:46:33.683Z,6.66
2018-01-08T05:49:03.524Z,6.69
2018-01-08T05:51:33.355Z,6.63
2018-01-08T05:54:03.294Z,6.68
2018-01-08T05:56:33.209Z,6.61
2018-01-08T05:59:03.653Z,6.60
2018-01-08T06:01:33.949Z,6.59
2018-01-08T06:04:06.444Z,6.67
2018-01-08T06:06:36.545Z,6.67
2018-01-08T06:09:10.794Z,6.70
2018-01-08T06:11:40.776Z,6.67
2018-01-08T06:14:10.751Z,6.54
2018-01-08T06:16:41.535Z,6.62
2018-01-08T06:19:11.546Z,6.52
2018-01-08T06:21:42.256Z,6.46
2018-01-08T06:24:12.506Z,6.57
2018-01-08T06:26:42.371Z,6.54
2018-01-08T06:29:12.352Z,6.60
2018-01-08T06:31:43.002Z,6.55
2018-01-08T06:34:12.908Z,6.50
2018-01-08T06:36:42.872Z,6.45
2018-01-08T06:39:14.057Z,6.36
2018-01-08T06:41:44.079Z,6.35
2018-01-08T06:44:13.921Z,6.34
2018-01-08T06:46:43.863Z,6.36
2018-01-08T06:49:14.216Z,6.35
2018-01-08T06:51:44.927Z,6.42
2018-01-08T06:54:14.574Z,6.31
2018-01-08T06:56:44.536Z,6.36
2018-01-08T06:59:15.106Z,6.47
2018-01-08T07:01:45.079Z,6.49
2018-01-08T07:04:16.095Z,6.54
2018-01-08T07:06:46.003Z,6.55
2018-01-08T07:09:15.958Z,6.57
2018-01-08T07:11:45.939Z,6.55
2018-01-08T07:14:16.164Z,6.52
2018-01-08T07:16:46.426Z,6.53
2018-01-08T07:19:16.374Z,6.48
2018-01-08T07:21:46.639Z,6.55
2018-01-08T07:24:16.644Z,6.62
2018-01-08T07:26:46.625Z,6.54
2018-01-08T07:29:16.775Z,6.61
2018-01-08T07:31:54.016Z,6.54
2018-01-08T07:34:24.085Z,6.63
2018-01-08T07:36:54.017Z,6.59
2018-01-08T07:39:24.108Z,6.60
2018-01-08T07:41:53.961Z,6.75
2018-01-08T07:44:25.434Z,6.78
2018-01-08T07:46:55.137Z,6.79
2018-01-08T07:49:25.133Z,6.70
2018-01-08T07:52:00.062Z,6.71
2018-01-08T07:54:30.394Z,6.75
2018-01-08T07:57:02.124Z,6.77
2018-01-08T07:59:32.032Z,6.80
2018-01-08T08:04:38.060Z,6.91
2018-01-08T08:07:08.091Z,7.07
2018-01-08T08:09:39.601Z,7.13
2018-01-08T08:14:46.121Z,7.21
2018-01-08T08:19:52.206Z,7.21
2018-01-08T08:22:22.194Z,7.35
2018-01-08T08:24:52.136Z,7.39
2018-01-08T08:27:22.026Z,7.35
2018-01-08T08:29:52.036Z,7.42
2018-01-08T08:34:56.116Z,7.61
2018-01-08T08:42:40.057Z,7.59
2018-01-08T08:45:10.735Z,7.54
2018-01-08T08:47:40.773Z,7.51
2018-01-08T08:50:11.092Z,7.58
2018-01-08T08:52:40.948Z,7.71
2018-01-08T08:55:11.038Z,7.65
2018-01-08T08:57:40.931Z,7.69
2018-01-08T09:00:10.911Z,7.65
2018-01-08T09:02:41.118Z,7.74
2018-01-08T09:05:10.999Z,7.77
2018-01-08T09:07:41.110Z,7.93
2018-01-08T09:10:10.945Z,7.95
2018-01-08T09:12:40.905Z,8.07
2018-01-08T09:15:10.737Z,8.06
2018-01-08T09:17:40.648Z,8.27
2018-01-08T09:20:10.476Z,8.27
2018-01-08T09:22:40.499Z,8.31
2018-01-08T09:25:10.805Z,8.33
2018-01-08T09:27:40.707Z,8.17
2018-01-08T09:30:10.659Z,8.28
2018-01-08T09:32:40.561Z,8.50
2018-01-08T09:35:10.899Z,8.47
2018-01-08T09:37:42.540Z,8.52
2018-01-08T09:40:12.732Z,8.71
2018-01-08T09:42:42.602Z,8.65
2018-01-08T09:45:16.425Z,8.79
2018-01-08T09:47:47.123Z,8.75
2018-01-08T09:50:17.543Z,8.63
2018-01-08T09:55:22.258Z,8.95
2018-01-08T10:00:28.839Z,9.12
2018-01-08T10:09:02.070Z,8.89
2018-01-08T10:11:49.370Z,9.01
2018-01-08T10:14:36.243Z,8.98
2018-01-08T10:17:23.251Z,9.22
2018-01-08T10:19:59.318Z,9.29
2018-01-08T10:22:30.672Z,9.08
2018-01-08T10:25:02.380Z,9.38
2018-01-08T10:27:32.912Z,9.48
2018-01-08T10:30:02.762Z,9.23
2018-01-08T10:32:32.601Z,9.65
2018-01-08T10:35:02.448Z,9.49
2018-01-08T10:37:32.213Z,9.33
2018-01-08T10:40:02.868Z,9.51
2018-01-08T10:42:42.235Z,9.26
2018-01-08T10:45:18.136Z,9.23
2018-01-08T10:47:53.974Z,9.06
2018-01-08T10:50:29.269Z,8.88
2018-01-08T10:52:59.506Z,9.20
2018-01-08T10:55:29.391Z,9.16
2018-01-08T10:57:59.295Z,9.32
2018-01-08T11:00:29.804Z,9.24
2018-01-08T11:03:05.022Z,9.41
2018-01-08T11:05:34.814Z,9.51
2018-01-08T11:08:04.742Z,9.58
2018-01-08T11:10:34.421Z,9.82
2018-01-08T11:13:04.250Z,9.93
2018-01-08T11:15:34.083Z,10.39
2018-01-08T11:18:03.960Z,10.37
2018-01-08T11:20:33.778Z,10.27
2018-01-08T11:23:04.413Z,10.45
2018-01-08T11:25:34.245Z,10.54
2018-01-08T11:28:03.838Z,10.81
2018-01-08T11:30:33.682Z,10.97
2018-01-08T11:33:03.601Z,11.16
2018-01-08T11:35:33.126Z,12.17
2018-01-08T11:38:02.584Z,11.79
2018-01-08T11:40:32.895Z,11.58
2018-01-08T11:43:02.449Z,11.32
2018-01-08T11:45:31.984Z,11.15
2018-01-08T11:48:01.390Z,10.66
2018-01-08T11:50:30.864Z,10.62
2018-01-08T11:53:00.373Z,10.79
2018-01-08T11:55:29.598Z,10.24
2018-01-08T11:57:59.199Z,10.01
2018-01-08T12:00:28.821Z,10.26
2018-01-08T12:02:58.164Z,10.10
2018-01-08T12:05:27.753Z,9.94
2018-01-08T12:07:57.369Z,9.73
2018-01-08T12:10:26.975Z,9.90
2018-01-08T12:12:56.488Z,9.98
2018-01-08T12:15:25.840Z,10.24
2018-01-08T12:17:55.676Z,10.23
2018-01-08T12:20:25.298Z,10.19
2018-01-08T12:22:55.236Z,10.19
2018-01-08T12:25:25.923Z,10.24
2018-01-08T12:27:55.759Z,10.35
2018-01-08T12:30:25.582Z,10.38
2018-01-08T12:32:55.385Z,9.73
2018-01-08T12:35:25.302Z,10.23
2018-01-08T12:37:55.126Z,10.20
2018-01-08T12:40:24.961Z,9.76
2018-01-08T12:42:54.901Z,9.80
2018-01-08T12:45:24.876Z,9.60
2018-01-08T12:47:54.712Z,9.70
2018-01-08T12:50:24.540Z,9.30
2018-01-08T12:52:54.456Z,9.21
2018-01-08T12:55:24.697Z,8.69
2018-01-08T12:57:54.326Z,8.86
2018-01-08T13:00:25.994Z,8.84
2018-01-08T13:02:55.502Z,9.07
2018-01-08T13:05:24.970Z,9.07
2018-01-08T13:07:54.264Z,8.67
2018-01-08T13:10:24.134Z,9.04
2018-01-08T13:12:54.053Z,8.92
2018-01-08T13:15:24.417Z,9.12
2018-01-08T13:17:54.357Z,8.94
2018-01-08T13:20:24.210Z,8.83
2018-01-08T13:22:55.381Z,8.81
2018-01-08T13:25:25.210Z,9.07
2018-01-08T13:27:56.219Z,8.70
2018-01-08T13:30:30.657Z,8.85
2018-01-08T13:33:00.548Z,8.99
2018-01-08T13:35:30.788Z,8.44
2018-01-08T13:38:00.274Z,8.45
2018-01-08T13:40:29.721Z,8.55
2018-01-08T13:42:59.862Z,8.57
2018-01-08T13:45:29.086Z,8.49
2018-01-08T13:47:58.595Z,8.64
2018-01-08T13:50:27.862Z,8.66
2018-01-08T13:52:57.122Z,8.75
2018-01-08T13:55:26.572Z,8.61
2018-01-08T13:57:56.026Z,8.42
2018-01-08T14:00:25.469Z,8.34
2018-01-08T14:02:59.860Z,8.29
2018-01-08T14:05:29.401Z,8.21
2018-01-08T14:07:58.918Z,8.07
2018-01-08T14:10:28.135Z,8.10
2018-01-08T14:12:57.367Z,8.21
2018-01-08T14:15:26.617Z,8.17
2018-01-08T14:17:56.136Z,8.26
2018-01-08T14:20:25.943Z,8.42
2018-01-08T14:22:55.792Z,8.40
2018-01-08T14:25:25.613Z,8.35
2018-01-08T14:27:55.414Z,8.30
2018-01-08T14:30:25.200Z,8.35
2018-01-08T14:32:55.098Z,8.39
2018-01-08T14:35:24.882Z,8.42
2018-01-08T14:37:54.667Z,8.33
2018-01-08T14:40:24.480Z,8.23
2018-01-08T14:42:54.262Z,8.30
2018-01-08T14:45:24.045Z,8.30
2018-01-08T14:47:53.846Z,8.16
2018-01-08T14:50:23.646Z,8.36
2018-01-08T14:52:53.447Z,8.17
2018-01-08T14:55:23.325Z,8.14
2018-01-08T14:57:53.159Z,8.07
2018-01-08T15:00:22.660Z,8.00
2018-01-08T15:02:52.228Z,7.97
2018-01-08T15:05:21.793Z,7.94
2018-01-08T15:07:51.666Z,7.91
2018-01-08T15:10:21.491Z,7.83
2018-01-08T15:12:51.085Z,7.81
2018-01-08T15:15:20.589Z,7.79
2018-01-08T15:17:50.222Z,7.96
2018-01-08T15:20:19.514Z,7.78
2018-01-08T15:22:49.078Z,7.79
2018-01-08T15:25:19.172Z,7.67
2018-01-08T15:27:48.997Z,7.62
2018-01-08T15:30:19.140Z,7.70
2018-01-08T15:32:49.039Z,7.71
2018-01-08T15:35:19.266Z,7.65
2018-01-08T15:37:49.158Z,7.62
2018-01-08T15:40:19.064Z,7.68
2018-01-08T15:42:48.942Z,7.65
2018-01-08T15:45:18.760Z,7.64
2018-01-08T15:47:49.135Z,7.64
2018-01-08T15:50:19.952Z,7.51
2018-01-08T15:52:49.700Z,7.61
2018-01-08T15:55:19.665Z,7.50
2018-01-08T15:57:49.553Z,7.60
2018-01-08T16:00:19.444Z,7.54
2018-01-08T16:02:52.802Z,7.55
2018-01-08T16:05:22.900Z,7.58
2018-01-08T16:07:54.652Z,7.63
2018-01-08T16:10:24.540Z,7.49
2018-01-08T16:12:54.520Z,7.49
2018-01-08T16:15:24.578Z,7.40
2018-01-08T16:20:29.011Z,7.38
2018-01-08T16:22:59.025Z,7.44
2018-01-08T16:30:37.252Z,7.69
2018-01-08T16:33:08.724Z,7.75
2018-01-08T16:35:39.226Z,7.85
2018-01-08T16:38:14.231Z,7.85
2018-01-08T16:40:45.053Z,7.87
2018-01-08T16:43:17.050Z,7.93
2018-01-08T16:45:46.747Z,7.85
2018-01-08T16:48:16.732Z,7.71
2018-01-08T16:50:46.642Z,7.65
2018-01-08T16:53:16.649Z,7.64
2018-01-08T16:55:46.605Z,7.47
2018-01-08T16:58:16.452Z,7.54
2018-01-08T17:00:46.387Z,7.53
2018-01-08T17:03:16.758Z,7.52
2018-01-08T17:05:46.443Z,7.46
2018-01-08T17:08:16.248Z,7.46
2018-01-08T17:10:46.085Z,7.44
2018-01-08T17:13:16.107Z,7.38
2018-01-08T17:15:45.874Z,7.42
2018-01-08T17:18:15.774Z,7.35
2018-01-08T17:20:45.632Z,7.32
2018-01-08T17:23:15.509Z,7.34
2018-01-08T17:25:45.330Z,7.39
2018-01-08T17:28:15.140Z,7.39
2018-01-08T17:30:44.940Z,7.40
2018-01-08T17:33:15.180Z,7.39
2018-01-08T17:35:44.974Z,7.31
2018-01-08T17:38:14.754Z,7.35
2018-01-08T17:40:44.946Z,7.30
2018-01-08T17:43:14.737Z,7.28
2018-01-08T17:45:44.715Z,7.29
2018-01-08T17:48:14.284Z,7.25
2018-01-08T17:50:44.092Z,7.32
2018-01-08T17:53:14.005Z,7.30
2018-01-08T17:55:43.872Z,7.32
2018-01-08T17:58:13.691Z,7.31
2018-01-08T18:00:44.033Z,7.29
2018-01-08T18:03:13.557Z,7.31
2018-01-08T18:05:43.389Z,7.30
2018-01-08T18:08:13.221Z,7.41
2018-01-08T18:10:43.100Z,7.33
2018-01-08T18:13:12.880Z,7.31
2018-01-08T18:15:42.824Z,7.29
2018-01-08T18:18:12.645Z,7.22
2018-01-08T18:20:42.466Z,7.27
2018-01-08T18:23:12.958Z,7.23
2018-01-08T18:25:42.872Z,7.21
2018-01-08T18:28:13.004Z,7.25
2018-01-08T18:30:42.705Z,7.22
2018-01-08T18:33:12.636Z,7.27
2018-01-08T18:35:42.500Z,7.20
2018-01-08T18:38:12.326Z,7.24
2018-01-08T18:40:42.589Z,7.16
2018-01-08T18:43:12.406Z,7.19
2018-01-08T18:45:42.257Z,7.17
2018-01-08T18:48:12.049Z,7.20
2018-01-08T18:50:41.831Z,7.14
2018-01-08T18:53:11.632Z,7.14
2018-01-08T18:55:41.447Z,7.18
2018-01-08T18:58:11.496Z,7.17
2018-01-08T19:00:41.294Z,7.19
2018-01-08T19:03:11.105Z,7.13
2018-01-08T19:05:40.911Z,7.10
2018-01-08T19:08:11.125Z,7.10
2018-01-08T19:10:41.129Z,7.09
2018-01-08T19:13:12.343Z,7.12
2018-01-08T19:15:44.135Z,7.15
2018-01-08T19:18:14.565Z,7.14
2018-01-08T19:20:45.226Z,7.10
2018-01-08T19:23:16.105Z,7.13
2018-01-08T19:25:46.342Z,7.11
2018-01-08T19:28:16.610Z,7.11
2018-01-08T19:30:50.745Z,7.15
2018-01-08T19:33:21.197Z,7.21
2018-01-08T19:35:51.285Z,7.13
2018-01-08T19:38:24.055Z,7.15
2018-01-08T19:40:54.061Z,7.11
2018-01-08T19:43:26.074Z,7.20
2018-01-08T19:45:56.174Z,7.16
2018-01-08T19:48:26.424Z,7.10
2018-01-08T19:50:59.124Z,7.10
2018-01-08T19:53:29.099Z,7.12
2018-01-08T19:55:58.956Z,7.11
2018-01-08T19:58:28.773Z,7.07
2018-01-08T20:00:58.597Z,7.12
2018-01-08T20:03:28.435Z,7.22
2018-01-08T20:05:58.245Z,7.26
2018-01-08T20:08:30.844Z,7.18
2018-01-08T20:11:02.411Z,7.14
2018-01-08T20:13:32.223Z,7.17
2018-01-08T20:16:02.686Z,7.14
2018-01-08T20:18:32.724Z,7.18
2018-01-08T20:21:02.998Z,7.08
2018-01-08T20:23:32.862Z,7.16
2018-01-08T20:26:03.009Z,7.12
2018-01-08T20:28:32.973Z,7.17
2018-01-08T20:31:02.853Z,7.14
2018-01-08T20:33:32.784Z,7.18
2018-01-08T20:36:02.717Z,7.20
2018-01-08T20:38:32.541Z,7.20
2018-01-08T20:41:02.577Z,7.15
2018-01-08T20:43:32.473Z,7.19
2018-01-08T20:46:02.477Z,7.20
2018-01-08T20:48:32.568Z,7.17
2018-01-08T20:51:02.530Z,7.07
2018-01-08T20:53:32.869Z,7.08
2018-01-08T20:56:02.998Z,6.97
2018-01-08T20:58:32.971Z,6.98
2018-01-08T21:01:02.937Z,6.90
2018-01-08T21:03:33.358Z,7.01
2018-01-08T21:06:03.254Z,6.96
2018-01-08T21:08:33.167Z,6.95
2018-01-08T21:11:03.050Z,6.99
2018-01-08T21:13:32.924Z,6.97
2018-01-08T21:16:02.760Z,6.97
2018-01-08T21:18:32.392Z,6.99
2018-01-08T21:21:02.689Z,7.04
2018-01-08T21:23:32.680Z,6.98
2018-01-08T21:26:02.716Z,6.98
2018-01-08T21:28:33.335Z,6.99
2018-01-08T21:31:03.261Z,6.92
2018-01-08T21:33:36.263Z,6.93
2018-01-08T21:36:06.574Z,6.93
2018-01-08T21:38:37.010Z,6.89
2018-01-08T21:41:07.535Z,6.91
2018-01-08T21:43:37.878Z,6.95
2018-01-08T21:46:08.328Z,6.99
2018-01-08T21:48:38.146Z,7.02
2018-01-08T21:51:07.921Z,7.22
2018-01-08T21:53:37.718Z,7.21
2018-01-08T21:56:07.846Z,7.24
2018-01-08T21:58:37.691Z,7.29
2018-01-08T22:01:07.554Z,7.33
2018-01-08T22:03:37.492Z,7.24
2018-01-08T22:06:07.794Z,7.14
2018-01-08T22:08:37.817Z,7.11
2018-01-08T22:11:07.708Z,7.01
2018-01-08T22:13:37.996Z,7.09
2018-01-08T22:16:07.873Z,7.01
2018-01-08T22:18:37.869Z,6.98
2018-01-08T22:21:07.746Z,6.93
2018-01-08T22:23:37.676Z,6.91
2018-01-08T22:26:07.573Z,6.82
2018-01-08T22:28:37.487Z,6.82
2018-01-08T22:31:07.481Z,6.74
2018-01-08T22:33:37.866Z,6.63
2018-01-08T22:36:07.792Z,6.53
2018-01-08T22:38:37.730Z,6.43
2018-01-08T22:41:07.622Z,6.28
2018-01-08T22:43:37.570Z,6.18
2018-01-08T22:46:07.450Z,6.03
2018-01-08T22:48:37.288Z,6.00
2018-01-08T22:51:07.251Z,5.87
2018-01-08T22:53:37.219Z,5.82
2018-01-08T22:56:07.191Z,5.74
2018-01-08T22:58:37.758Z,5.66
2018-01-08T23:01:08.333Z,5.57
2018-01-08T23:03:39.791Z,5.53
2018-01-08T23:06:09.756Z,5.51
2018-01-08T23:08:43.422Z,5.45
2018-01-08T23:11:13.634Z,5.35
2018-01-08T23:13:43.534Z,5.23
2018-01-08T23:16:13.375Z,5.18
2018-01-08T23:18:43.440Z,5.08
2018-01-08T23:21:13.348Z,5.08
2018-01-08T23:23:43.242Z,5.10
2018-01-08T23:26:13.162Z,5.00
2018-01-08T23:28:44.322Z,4.90
2018-01-08T23:31:14.237Z,4.95
2018-01-08T23:33:44.266Z,4.85
2018-01-08T23:36:14.312Z,4.89
2018-01-08T23:38:44.962Z,4.95
2018-01-08T23:41:14.827Z,4.88
2018-01-08T23:43:44.489Z,4.76
2018-01-08T23:46:14.461Z,4.61
2018-01-08T23:48:44.414Z,4.50
2018-01-08T23:51:14.487Z,4.38
2018-01-08T23:53:44.359Z,4.35
2018-01-08T23:56:14.116Z,4.27
2018-01-08T23:58:43.976Z,4.29
